sensor_id;sensor_type;location;lat;lon;timestamp;pressure;altitude;pressure_sealevel;temperature;humidity
71465;BME280;59274;49.874;9.154;2023-03-03T00:02:17;100723.75;;;-0.03;97.14
71465;BME280;59274;49.874;9.154;2023-03-03T00:04:42;100722.16;;;-0.04;96.92
71465;BME280;59274;49.874;9.154;2023-03-03T00:07:07;100730.28;;;-0.14;96.66
71465;BME280;59274;49.874;9.154;2023-03-03T00:09:33;100723.72;;;-0.21;97.83
71465;BME280;59274;49.874;9.154;2023-03-03T00:11:59;100720.50;;;-0.18;97.27
71465;BME280;59274;49.874;9.154;2023-03-03T00:14:34;100715.59;;;-0.30;97.55
71465;BME280;59274;49.874;9.154;2023-03-03T00:17:00;100724.94;;;-0.32;98.00
71465;BME280;59274;49.874;9.154;2023-03-03T00:19:37;100723.88;;;-0.31;98.14
71465;BME280;59274;49.874;9.154;2023-03-03T00:22:13;100731.09;;;-0.32;99.53
71465;BME280;59274;49.874;9.154;2023-03-03T00:24:41;100726.63;;;-0.36;100.00
71465;BME280;59274;49.874;9.154;2023-03-03T00:27:22;100719.19;;;-0.40;99.58
71465;BME280;59274;49.874;9.154;2023-03-03T00:29:54;100729.56;;;-0.38;99.12
71465;BME280;59274;49.874;9.154;2023-03-03T00:32:23;100740.63;;;-0.50;100.00
71465;BME280;59274;49.874;9.154;2023-03-03T00:34:52;100744.09;;;-0.49;100.00
71465;BME280;59274;49.874;9.154;2023-03-03T00:37:39;100739.34;;;-0.52;100.00
71465;BME280;59274;49.874;9.154;2023-03-03T00:42:50;100741.50;;;-0.54;100.00
71465;BME280;59274;49.874;9.154;2023-03-03T00:47:54;100751.88;;;-0.53;100.00
71465;BME280;59274;49.874;9.154;2023-03-03T00:50:27;100749.50;;;-0.54;100.00
71465;BME280;59274;49.874;9.154;2023-03-03T00:53:03;100756.97;;;-0.56;100.00
71465;BME280;59274;49.874;9.154;2023-03-03T00:55:30;100768.97;;;-0.54;100.00
71465;BME280;59274;49.874;9.154;2023-03-03T00:57:59;100768.34;;;-0.46;100.00
71465;BME280;59274;49.874;9.154;2023-03-03T01:00:24;100761.25;;;-0.55;100.00
71465;BME280;59274;49.874;9.154;2023-03-03T01:02:50;100770.56;;;-0.53;100.00
71465;BME280;59274;49.874;9.154;2023-03-03T01:05:17;100762.41;;;-0.43;100.00
71465;BME280;59274;49.874;9.154;2023-03-03T01:07:43;100758.69;;;-0.42;100.00
71465;BME280;59274;49.874;9.154;2023-03-03T01:10:09;100757.94;;;-0.47;100.00
71465;BME280;59274;49.874;9.154;2023-03-03T01:12:35;100751.81;;;-0.48;100.00
71465;BME280;59274;49.874;9.154;2023-03-03T01:15:07;100751.97;;;-0.58;100.00
71465;BME280;59274;49.874;9.154;2023-03-03T01:17:33;100754.19;;;-0.65;100.00
71465;BME280;59274;49.874;9.154;2023-03-03T01:19:59;100759.50;;;-0.65;100.00
71465;BME280;59274;49.874;9.154;2023-03-03T01:22:25;100759.00;;;-0.67;100.00
71465;BME280;59274;49.874;9.154;2023-03-03T01:24:50;100759.84;;;-0.71;100.00
71465;BME280;59274;49.874;9.154;2023-03-03T01:27:16;100756.94;;;-0.75;100.00
71465;BME280;59274;49.874;9.154;2023-03-03T01:29:41;100757.81;;;-0.80;100.00
71465;BME280;59274;49.874;9.154;2023-03-03T01:32:06;100761.31;;;-0.84;100.00
71465;BME280;59274;49.874;9.154;2023-03-03T01:34:32;100763.47;;;-0.86;100.00
71465;BME280;59274;49.874;9.154;2023-03-03T01:36:58;100755.84;;;-0.98;100.00
71465;BME280;59274;49.874;9.154;2023-03-03T01:39:25;100745.72;;;-0.96;100.00
71465;BME280;59274;49.874;9.154;2023-03-03T01:41:50;100745.72;;;-0.96;100.00
71465;BME280;59274;49.874;9.154;2023-03-03T01:44:16;100745.19;;;-0.98;100.00
71465;BME280;59274;49.874;9.154;2023-03-03T01:46:46;100741.78;;;-1.03;100.00
71465;BME280;59274;49.874;9.154;2023-03-03T01:49:20;100748.47;;;-1.06;100.00
71465;BME280;59274;49.874;9.154;2023-03-03T01:51:53;100752.97;;;-1.01;100.00
71465;BME280;59274;49.874;9.154;2023-03-03T01:54:33;100751.94;;;-1.05;100.00
71465;BME280;59274;49.874;9.154;2023-03-03T01:57:04;100742.69;;;-1.13;100.00
71465;BME280;59274;49.874;9.154;2023-03-03T01:59:36;100740.06;;;-1.18;100.00
71465;BME280;59274;49.874;9.154;2023-03-03T02:02:04;100741.38;;;-1.15;100.00
71465;BME280;59274;49.874;9.154;2023-03-03T02:04:30;100741.25;;;-1.00;100.00
71465;BME280;59274;49.874;9.154;2023-03-03T02:06:59;100732.19;;;-1.04;98.87
71465;BME280;59274;49.874;9.154;2023-03-03T02:09:58;100743.47;;;-1.12;99.01
71465;BME280;59274;49.874;9.154;2023-03-03T02:12:50;100741.72;;;-1.22;99.48
71465;BME280;59274;49.874;9.154;2023-03-03T02:17:56;100741.25;;;-1.29;98.94
71465;BME280;59274;49.874;9.154;2023-03-03T02:25:36;100738.13;;;-1.36;100.00
71465;BME280;59274;49.874;9.154;2023-03-03T02:28:05;100739.19;;;-1.37;100.00
71465;BME280;59274;49.874;9.154;2023-03-03T02:30:36;100738.44;;;-1.43;100.00
71465;BME280;59274;49.874;9.154;2023-03-03T02:33:02;100742.94;;;-1.38;100.00
71465;BME280;59274;49.874;9.154;2023-03-03T02:35:29;100755.44;;;-1.39;100.00
71465;BME280;59274;49.874;9.154;2023-03-03T02:37:59;100751.94;;;-1.34;100.00
71465;BME280;59274;49.874;9.154;2023-03-03T02:40:30;100744.25;;;-1.41;100.00
71465;BME280;59274;49.874;9.154;2023-03-03T02:42:59;100736.31;;;-1.46;100.00
71465;BME280;59274;49.874;9.154;2023-03-03T02:45:25;100742.94;;;-1.38;100.00
71465;BME280;59274;49.874;9.154;2023-03-03T02:47:51;100742.97;;;-1.43;100.00
71465;BME280;59274;49.874;9.154;2023-03-03T02:50:16;100744.50;;;-1.37;100.00
71465;BME280;59274;49.874;9.154;2023-03-03T02:52:42;100746.38;;;-1.38;100.00
71465;BME280;59274;49.874;9.154;2023-03-03T02:55:08;100744.84;;;-1.44;100.00
71465;BME280;59274;49.874;9.154;2023-03-03T02:57:33;100745.38;;;-1.47;100.00
71465;BME280;59274;49.874;9.154;2023-03-03T02:59:59;100753.94;;;-1.50;100.00
71465;BME280;59274;49.874;9.154;2023-03-03T03:02:24;100744.25;;;-1.41;100.00
71465;BME280;59274;49.874;9.154;2023-03-03T03:04:51;100746.44;;;-1.43;100.00
71465;BME280;59274;49.874;9.154;2023-03-03T03:07:16;100753.31;;;-1.37;100.00
71465;BME280;59274;49.874;9.154;2023-03-03T03:09:42;100747.50;;;-1.44;100.00
71465;BME280;59274;49.874;9.154;2023-03-03T03:12:07;100754.13;;;-1.41;100.00
71465;BME280;59274;49.874;9.154;2023-03-03T03:14:33;100749.41;;;-1.49;100.00
71465;BME280;59274;49.874;9.154;2023-03-03T03:16:58;100758.66;;;-1.42;100.00
71465;BME280;59274;49.874;9.154;2023-03-03T03:19:24;100767.22;;;-1.45;100.00
71465;BME280;59274;49.874;9.154;2023-03-03T03:21:49;100760.06;;;-1.49;100.00
71465;BME280;59274;49.874;9.154;2023-03-03T03:24:14;100767.34;;;-1.60;100.00
71465;BME280;59274;49.874;9.154;2023-03-03T03:26:40;100775.69;;;-1.77;100.00
71465;BME280;59274;49.874;9.154;2023-03-03T03:29:05;100777.81;;;-1.74;100.00
71465;BME280;59274;49.874;9.154;2023-03-03T03:31:31;100767.03;;;-1.92;100.00
71465;BME280;59274;49.874;9.154;2023-03-03T03:33:57;100765.38;;;-1.83;100.00
71465;BME280;59274;49.874;9.154;2023-03-03T03:36:24;100762.31;;;-1.67;100.00
71465;BME280;59274;49.874;9.154;2023-03-03T03:38:51;100755.69;;;-1.69;100.00
71465;BME280;59274;49.874;9.154;2023-03-03T03:41:16;100752.19;;;-1.65;100.00
71465;BME280;59274;49.874;9.154;2023-03-03T03:43:42;100753.88;;;-1.74;100.00
71465;BME280;59274;49.874;9.154;2023-03-03T03:46:07;100766.69;;;-1.81;100.00
71465;BME280;59274;49.874;9.154;2023-03-03T03:48:33;100765.34;;;-1.78;100.00
71465;BME280;59274;49.874;9.154;2023-03-03T03:50:59;100759.72;;;-1.72;100.00
71465;BME280;59274;49.874;9.154;2023-03-03T03:53:24;100758.16;;;-1.78;100.00
71465;BME280;59274;49.874;9.154;2023-03-03T03:55:50;100753.06;;;-1.74;100.00
71465;BME280;59274;49.874;9.154;2023-03-03T03:58:16;100765.09;;;-1.82;100.00
71465;BME280;59274;49.874;9.154;2023-03-03T04:00:44;100765.63;;;-1.80;100.00
71465;BME280;59274;49.874;9.154;2023-03-03T04:03:10;100761.41;;;-1.86;100.00
71465;BME280;59274;49.874;9.154;2023-03-03T04:05:36;100764.81;;;-1.80;100.00
71465;BME280;59274;49.874;9.154;2023-03-03T04:08:01;100765.84;;;-1.76;100.00
71465;BME280;59274;49.874;9.154;2023-03-03T04:10:27;100773.66;;;-1.85;100.00
71465;BME280;59274;49.874;9.154;2023-03-03T04:12:53;100769.16;;;-1.94;100.00
71465;BME280;59274;49.874;9.154;2023-03-03T04:15:18;100766.56;;;-2.00;100.00
71465;BME280;59274;49.874;9.154;2023-03-03T04:17:44;100775.56;;;-1.95;100.00
71465;BME280;59274;49.874;9.154;2023-03-03T04:20:12;100780.66;;;-2.04;100.00
71465;BME280;59274;49.874;9.154;2023-03-03T04:22:38;100781.97;;;-2.02;100.00
71465;BME280;59274;49.874;9.154;2023-03-03T04:25:04;100777.00;;;-2.13;100.00
71465;BME280;59274;49.874;9.154;2023-03-03T04:27:34;100785.75;;;-2.13;100.00
71465;BME280;59274;49.874;9.154;2023-03-03T04:30:01;100782.31;;;-2.13;100.00
71465;BME280;59274;49.874;9.154;2023-03-03T04:32:27;100784.69;;;-2.07;100.00
71465;BME280;59274;49.874;9.154;2023-03-03T04:34:53;100789.44;;;-2.04;100.00
71465;BME280;59274;49.874;9.154;2023-03-03T04:37:18;100788.38;;;-2.03;100.00
71465;BME280;59274;49.874;9.154;2023-03-03T04:39:44;100785.47;;;-2.06;100.00
71465;BME280;59274;49.874;9.154;2023-03-03T04:42:09;100785.50;;;-2.11;100.00
71465;BME280;59274;49.874;9.154;2023-03-03T04:44:34;100787.91;;;-2.15;100.00
71465;BME280;59274;49.874;9.154;2023-03-03T04:47:00;100795.63;;;-2.13;100.00
71465;BME280;59274;49.874;9.154;2023-03-03T04:49:25;100788.41;;;-2.13;100.00
71465;BME280;59274;49.874;9.154;2023-03-03T04:51:51;100791.06;;;-2.08;100.00
71465;BME280;59274;49.874;9.154;2023-03-03T04:54:16;100804.38;;;-2.08;100.00
71465;BME280;59274;49.874;9.154;2023-03-03T04:56:42;100794.25;;;-2.11;100.00
71465;BME280;59274;49.874;9.154;2023-03-03T04:59:07;100802.81;;;-2.14;100.00
71465;BME280;59274;49.874;9.154;2023-03-03T05:01:32;100811.84;;;-2.15;100.00
71465;BME280;59274;49.874;9.154;2023-03-03T05:03:58;100807.38;;;-2.24;100.00
71465;BME280;59274;49.874;9.154;2023-03-03T05:06:23;100813.25;;;-2.27;100.00
71465;BME280;59274;49.874;9.154;2023-03-03T05:08:49;100806.13;;;-2.42;100.00
71465;BME280;59274;49.874;9.154;2023-03-03T05:11:14;100803.75;;;-2.54;100.00
71465;BME280;59274;49.874;9.154;2023-03-03T05:13:40;100808.53;;;-2.51;100.00
71465;BME280;59274;49.874;9.154;2023-03-03T05:16:05;100802.44;;;-2.56;100.00
71465;BME280;59274;49.874;9.154;2023-03-03T05:18:31;100800.59;;;-2.66;100.00
71465;BME280;59274;49.874;9.154;2023-03-03T05:20:57;100802.44;;;-2.51;100.00
71465;BME280;59274;49.874;9.154;2023-03-03T05:23:23;100795.78;;;-2.54;100.00
71465;BME280;59274;49.874;9.154;2023-03-03T05:25:49;100790.97;;;-2.47;100.00
71465;BME280;59274;49.874;9.154;2023-03-03T05:28:15;100798.94;;;-2.42;100.00
71465;BME280;59274;49.874;9.154;2023-03-03T05:30:41;100810.84;;;-2.34;100.00
71465;BME280;59274;49.874;9.154;2023-03-03T05:33:06;100816.16;;;-2.29;100.00
71465;BME280;59274;49.874;9.154;2023-03-03T05:35:32;100810.59;;;-2.27;100.00
71465;BME280;59274;49.874;9.154;2023-03-03T05:37:57;100802.31;;;-2.26;100.00
71465;BME280;59274;49.874;9.154;2023-03-03T05:40:24;100814.53;;;-2.20;100.00
71465;BME280;59274;49.874;9.154;2023-03-03T05:42:50;100813.44;;;-2.14;100.00
71465;BME280;59274;49.874;9.154;2023-03-03T05:45:16;100810.78;;;-2.19;100.00
71465;BME280;59274;49.874;9.154;2023-03-03T05:47:45;100812.94;;;-2.21;100.00
71465;BME280;59274;49.874;9.154;2023-03-03T05:50:10;100813.47;;;-2.19;100.00
71465;BME280;59274;49.874;9.154;2023-03-03T05:52:36;100817.22;;;-2.25;100.00
71465;BME280;59274;49.874;9.154;2023-03-03T05:55:02;100823.09;;;-2.28;100.00
71465;BME280;59274;49.874;9.154;2023-03-03T05:57:27;100824.38;;;-2.25;100.00
71465;BME280;59274;49.874;9.154;2023-03-03T05:59:53;100823.03;;;-2.18;100.00
71465;BME280;59274;49.874;9.154;2023-03-03T06:02:18;100841.09;;;-2.10;100.00
71465;BME280;59274;49.874;9.154;2023-03-03T06:04:44;100839.78;;;-2.17;100.00
71465;BME280;59274;49.874;9.154;2023-03-03T06:07:09;100836.09;;;-2.26;100.00
71465;BME280;59274;49.874;9.154;2023-03-03T06:09:34;100853.66;;;-2.25;100.00
71465;BME280;59274;49.874;9.154;2023-03-03T06:12:01;100843.88;;;-2.45;100.00
71465;BME280;59274;49.874;9.154;2023-03-03T06:14:26;100842.31;;;-2.51;100.00
71465;BME280;59274;49.874;9.154;2023-03-03T06:16:51;100847.06;;;-2.48;100.00
71465;BME280;59274;49.874;9.154;2023-03-03T06:19:17;100849.19;;;-2.45;100.00
71465;BME280;59274;49.874;9.154;2023-03-03T06:21:42;100845.97;;;-2.37;100.00
71465;BME280;59274;49.874;9.154;2023-03-03T06:24:08;100845.97;;;-2.37;100.00
71465;BME280;59274;49.874;9.154;2023-03-03T06:26:34;100853.41;;;-2.29;100.00
71465;BME280;59274;49.874;9.154;2023-03-03T06:29:00;100855.78;;;-2.22;100.00
71465;BME280;59274;49.874;9.154;2023-03-03T06:31:26;100860.56;;;-2.24;100.00
71465;BME280;59274;49.874;9.154;2023-03-03T06:33:52;100865.09;;;-2.25;100.00
71465;BME280;59274;49.874;9.154;2023-03-03T06:36:18;100867.19;;;-2.17;100.00
71465;BME280;59274;49.874;9.154;2023-03-03T06:38:43;100860.78;;;-2.11;100.00
71465;BME280;59274;49.874;9.154;2023-03-03T06:41:09;100870.34;;;-2.10;100.00
71465;BME280;59274;49.874;9.154;2023-03-03T06:43:36;100871.16;;;-2.09;100.00
71465;BME280;59274;49.874;9.154;2023-03-03T06:46:02;100867.66;;;-2.00;100.00
71465;BME280;59274;49.874;9.154;2023-03-03T06:48:29;100870.56;;;-1.96;100.00
71465;BME280;59274;49.874;9.154;2023-03-03T06:50:55;100864.91;;;-1.79;100.00
71465;BME280;59274;49.874;9.154;2023-03-03T06:53:20;100867.00;;;-1.76;100.00
71465;BME280;59274;49.874;9.154;2023-03-03T06:55:46;100881.88;;;-1.70;100.00
71465;BME280;59274;49.874;9.154;2023-03-03T07:00:42;100892.44;;;-1.50;100.00
71465;BME280;59274;49.874;9.154;2023-03-03T07:03:14;100896.66;;;-1.44;100.00
71465;BME280;59274;49.874;9.154;2023-03-03T07:05:41;100901.94;;;-1.39;100.00
71465;BME280;59274;49.874;9.154;2023-03-03T07:08:15;100909.88;;;-1.29;100.00
71465;BME280;59274;49.874;9.154;2023-03-03T07:10:42;100910.38;;;-1.27;100.00
71465;BME280;59274;49.874;9.154;2023-03-03T07:13:25;100921.72;;;-1.11;100.00
71465;BME280;59274;49.874;9.154;2023-03-03T07:15:53;100926.75;;;-1.04;100.00
71465;BME280;59274;49.874;9.154;2023-03-03T07:18:38;100925.88;;;-0.95;100.00
71465;BME280;59274;49.874;9.154;2023-03-03T07:21:17;100916.56;;;-0.97;100.00
71465;BME280;59274;49.874;9.154;2023-03-03T07:23:44;100925.03;;;-0.90;100.00
71465;BME280;59274;49.874;9.154;2023-03-03T07:26:28;100930.59;;;-0.82;100.00
71465;BME280;59274;49.874;9.154;2023-03-03T07:29:02;100923.28;;;-0.71;100.00
71465;BME280;59274;49.874;9.154;2023-03-03T07:31:39;100930.31;;;-0.80;100.00
71465;BME280;59274;49.874;9.154;2023-03-03T07:37:01;100935.47;;;-0.60;100.00
71465;BME280;59274;49.874;9.154;2023-03-03T07:39:34;100937.94;;;-0.40;100.00
71465;BME280;59274;49.874;9.154;2023-03-03T07:42:38;100940.34;;;-0.38;100.00
71465;BME280;59274;49.874;9.154;2023-03-03T07:45:28;100948.06;;;-0.36;100.00
71465;BME280;59274;49.874;9.154;2023-03-03T07:48:18;100944.88;;;-0.38;100.00
71465;BME280;59274;49.874;9.154;2023-03-03T07:50:47;100952.81;;;-0.33;100.00
71465;BME280;59274;49.874;9.154;2023-03-03T07:53:21;100953.00;;;-0.25;99.87
71465;BME280;59274;49.874;9.154;2023-03-03T07:55:49;100951.81;;;-0.14;99.91
71465;BME280;59274;49.874;9.154;2023-03-03T07:58:21;100942.00;;;-0.18;100.00
71465;BME280;59274;49.874;9.154;2023-03-03T08:03:50;100962.06;;;0.03;99.68
71465;BME280;59274;49.874;9.154;2023-03-03T08:09:30;100976.09;;;-0.10;100.00
71465;BME280;59274;49.874;9.154;2023-03-03T08:14:55;100977.97;;;0.13;99.63
71465;BME280;59274;49.874;9.154;2023-03-03T08:17:24;100984.50;;;0.26;99.54
71465;BME280;59274;49.874;9.154;2023-03-03T08:19:52;100974.00;;;0.34;98.83
71465;BME280;59274;49.874;9.154;2023-03-03T08:22:33;100976.59;;;0.39;98.09
71465;BME280;59274;49.874;9.154;2023-03-03T08:25:00;100975.69;;;0.49;97.75
71465;BME280;59274;49.874;9.154;2023-03-03T08:27:26;100975.97;;;0.66;97.36
71465;BME280;59274;49.874;9.154;2023-03-03T08:29:51;100976.84;;;0.62;97.68
71465;BME280;59274;49.874;9.154;2023-03-03T08:32:17;100966.16;;;0.62;98.14
71465;BME280;59274;49.874;9.154;2023-03-03T08:34:42;100977.06;;;0.65;98.08
71465;BME280;59274;49.874;9.154;2023-03-03T08:37:08;100972.94;;;0.73;98.59
71465;BME280;59274;49.874;9.154;2023-03-03T08:39:33;100970.66;;;0.85;97.92
71465;BME280;59274;49.874;9.154;2023-03-03T08:41:59;100967.25;;;0.98;97.06
71465;BME280;59274;49.874;9.154;2023-03-03T08:44:25;100967.75;;;1.00;96.90
71465;BME280;59274;49.874;9.154;2023-03-03T08:46:51;100962.97;;;1.16;96.82
71465;BME280;59274;49.874;9.154;2023-03-03T08:49:16;100957.84;;;1.20;95.02
71465;BME280;59274;49.874;9.154;2023-03-03T08:51:42;100962.03;;;1.26;94.49
71465;BME280;59274;49.874;9.154;2023-03-03T08:54:07;100969.03;;;1.22;94.23
71465;BME280;59274;49.874;9.154;2023-03-03T08:56:33;100970.47;;;1.33;93.71
71465;BME280;59274;49.874;9.154;2023-03-03T08:58:58;100968.63;;;1.47;91.95
71465;BME280;59274;49.874;9.154;2023-03-03T09:01:24;100973.19;;;1.46;92.57
71465;BME280;59274;49.874;9.154;2023-03-03T09:03:49;100975.50;;;1.53;93.11
71465;BME280;59274;49.874;9.154;2023-03-03T09:06:15;100983.44;;;1.58;93.26
71465;BME280;59274;49.874;9.154;2023-03-03T09:08:40;100984.88;;;1.69;93.56
71465;BME280;59274;49.874;9.154;2023-03-03T09:11:11;100984.75;;;1.74;92.33
71465;BME280;59274;49.874;9.154;2023-03-03T09:13:37;100985.06;;;1.86;92.38
71465;BME280;59274;49.874;9.154;2023-03-03T09:16:10;100976.78;;;2.02;92.06
71465;BME280;59274;49.874;9.154;2023-03-03T09:18:37;100972.03;;;1.99;91.29
71465;BME280;59274;49.874;9.154;2023-03-03T09:21:22;100982.03;;;2.20;91.17
71465;BME280;59274;49.874;9.154;2023-03-03T09:23:55;100981.63;;;2.13;91.18
71465;BME280;59274;49.874;9.154;2023-03-03T09:26:30;100984.81;;;2.15;91.37
71465;BME280;59274;49.874;9.154;2023-03-03T09:31:48;100979.78;;;2.41;90.13
71465;BME280;59274;49.874;9.154;2023-03-03T09:36:54;100982.19;;;2.65;90.01
71465;BME280;59274;49.874;9.154;2023-03-03T09:39:24;100984.38;;;2.77;89.54
71465;BME280;59274;49.874;9.154;2023-03-03T09:42:26;100978.69;;;2.78;89.51
71465;BME280;59274;49.874;9.154;2023-03-03T09:48:38;100979.41;;;3.06;88.57
71465;BME280;59274;49.874;9.154;2023-03-03T09:53:34;100985.84;;;3.19;86.85
71465;BME280;59274;49.874;9.154;2023-03-03T09:56:11;100985.53;;;3.20;86.58
71465;BME280;59274;49.874;9.154;2023-03-03T10:06:48;100983.84;;;3.69;85.16
71465;BME280;59274;49.874;9.154;2023-03-03T10:09:33;100982.72;;;3.70;84.29
71465;BME280;59274;49.874;9.154;2023-03-03T10:12:21;100986.72;;;3.81;83.71
71465;BME280;59274;49.874;9.154;2023-03-03T10:31:57;100987.97;;;4.54;80.94
71465;BME280;59274;49.874;9.154;2023-03-03T10:57:28;100998.31;;;5.21;74.82
71465;BME280;59274;49.874;9.154;2023-03-03T11:08:22;100993.19;;;5.71;74.31
71465;BME280;59274;49.874;9.154;2023-03-03T11:13:44;100994.59;;;5.85;74.84
71465;BME280;59274;49.874;9.154;2023-03-03T11:16:33;100994.41;;;6.08;72.06
71465;BME280;59274;49.874;9.154;2023-03-03T11:25:07;100972.66;;;6.42;71.79
71465;BME280;59274;49.874;9.154;2023-03-03T11:30:42;100970.31;;;6.61;70.49
71465;BME280;59274;49.874;9.154;2023-03-03T11:43:59;100957.16;;;7.22;68.60
71465;BME280;59274;49.874;9.154;2023-03-03T11:46:39;100954.50;;;7.34;68.44
71465;BME280;59274;49.874;9.154;2023-03-03T11:54:42;100943.72;;;7.46;66.21
71465;BME280;59274;49.874;9.154;2023-03-03T11:57:20;100936.88;;;7.49;66.49
71465;BME280;59274;49.874;9.154;2023-03-03T12:16:21;100910.69;;;7.98;63.92
71465;BME280;59274;49.874;9.154;2023-03-03T12:19:24;100901.78;;;7.98;64.65
71465;BME280;59274;49.874;9.154;2023-03-03T12:21:53;100915.41;;;7.89;63.75
71465;BME280;59274;49.874;9.154;2023-03-03T12:35:49;100898.06;;;8.51;61.06
71465;BME280;59274;49.874;9.154;2023-03-03T12:48:58;100879.97;;;9.38;59.02
71465;BME280;59274;49.874;9.154;2023-03-03T12:56:57;100880.34;;;9.53;59.03
71465;BME280;59274;49.874;9.154;2023-03-03T13:02:24;100865.41;;;9.43;58.44
71465;BME280;59274;49.874;9.154;2023-03-03T13:07:40;100872.06;;;9.77;57.17
71465;BME280;59274;49.874;9.154;2023-03-03T13:13:13;100877.22;;;9.82;56.88
71465;BME280;59274;49.874;9.154;2023-03-03T13:16:04;100872.50;;;9.79;56.79
71465;BME280;59274;49.874;9.154;2023-03-03T13:18:56;100871.09;;;10.01;56.45
71465;BME280;59274;49.874;9.154;2023-03-03T13:21:42;100870.97;;;9.97;57.35
71465;BME280;59274;49.874;9.154;2023-03-03T13:26:51;100858.34;;;10.36;56.55
71465;BME280;59274;49.874;9.154;2023-03-03T13:32:11;100851.25;;;10.16;55.99
71465;BME280;59274;49.874;9.154;2023-03-03T13:42:39;100852.81;;;10.52;54.81
71465;BME280;59274;49.874;9.154;2023-03-03T13:51:38;100837.06;;;10.57;54.97
71465;BME280;59274;49.874;9.154;2023-03-03T14:05:26;100832.91;;;10.44;53.92
71465;BME280;59274;49.874;9.154;2023-03-03T14:10:46;100825.41;;;10.76;54.14
71465;BME280;59274;49.874;9.154;2023-03-03T14:13:22;100830.31;;;10.90;52.92
71465;BME280;59274;49.874;9.154;2023-03-03T14:15:53;100817.81;;;10.66;53.31
71465;BME280;59274;49.874;9.154;2023-03-03T14:21:15;100826.09;;;10.92;53.05
71465;BME280;59274;49.874;9.154;2023-03-03T14:23:47;100817.94;;;10.73;52.63
71465;BME280;59274;49.874;9.154;2023-03-03T14:26:14;100818.53;;;10.44;52.50
71465;BME280;59274;49.874;9.154;2023-03-03T14:28:46;100821.97;;;10.41;53.36
71465;BME280;59274;49.874;9.154;2023-03-03T14:31:26;100818.31;;;10.72;52.68
71465;BME280;59274;49.874;9.154;2023-03-03T14:36:34;100801.38;;;10.78;52.25
71465;BME280;59274;49.874;9.154;2023-03-03T14:39:01;100801.16;;;11.10;52.03
71465;BME280;59274;49.874;9.154;2023-03-03T14:41:35;100809.72;;;10.89;52.23
71465;BME280;59274;49.874;9.154;2023-03-03T14:44:25;100807.59;;;10.79;53.59
71465;BME280;59274;49.874;9.154;2023-03-03T14:49:33;100818.16;;;10.84;53.06
71465;BME280;59274;49.874;9.154;2023-03-03T14:52:17;100812.41;;;11.08;52.64
71465;BME280;59274;49.874;9.154;2023-03-03T14:54:51;100799.78;;;11.42;52.73
71465;BME280;59274;49.874;9.154;2023-03-03T14:57:18;100806.84;;;11.69;51.79
71465;BME280;59274;49.874;9.154;2023-03-03T15:02:34;100816.78;;;12.11;50.62
71465;BME280;59274;49.874;9.154;2023-03-03T15:05:14;100814.13;;;12.14;49.62
71465;BME280;59274;49.874;9.154;2023-03-03T15:07:41;100807.81;;;11.58;51.40
71465;BME280;59274;49.874;9.154;2023-03-03T15:10:07;100804.94;;;12.26;50.18
71465;BME280;59274;49.874;9.154;2023-03-03T15:12:38;100814.41;;;12.36;48.99
71465;BME280;59274;49.874;9.154;2023-03-03T15:17:37;100809.78;;;12.40;50.11
71465;BME280;59274;49.874;9.154;2023-03-03T15:31:02;100819.47;;;12.37;49.40
71465;BME280;59274;49.874;9.154;2023-03-03T15:33:40;100807.16;;;12.80;48.58
71465;BME280;59274;49.874;9.154;2023-03-03T15:36:30;100806.00;;;13.62;46.60
71465;BME280;59274;49.874;9.154;2023-03-03T15:39:38;100807.59;;;12.86;47.07
71465;BME280;59274;49.874;9.154;2023-03-03T16:01:22;100813.44;;;9.41;57.97
71465;BME280;59274;49.874;9.154;2023-03-03T16:03:56;100805.22;;;9.22;58.64
71465;BME280;59274;49.874;9.154;2023-03-03T16:17:25;100816.88;;;8.39;62.59
71465;BME280;59274;49.874;9.154;2023-03-03T16:22:55;100825.72;;;8.11;63.51
71465;BME280;59274;49.874;9.154;2023-03-03T16:25:29;100829.09;;;7.96;64.49
71465;BME280;59274;49.874;9.154;2023-03-03T16:28:41;100837.47;;;7.79;65.26
71465;BME280;59274;49.874;9.154;2023-03-03T16:33:22;100824.41;;;7.57;67.30
71465;BME280;59274;49.874;9.154;2023-03-03T16:36:21;100831.38;;;7.45;67.19
71465;BME280;59274;49.874;9.154;2023-03-03T16:41:43;100838.53;;;7.17;68.46
71465;BME280;59274;49.874;9.154;2023-03-03T16:55:35;100854.81;;;6.55;70.44
71465;BME280;59274;49.874;9.154;2023-03-03T17:00:39;100873.44;;;6.48;70.95
71465;BME280;59274;49.874;9.154;2023-03-03T17:03:38;100866.84;;;6.37;71.61
71465;BME280;59274;49.874;9.154;2023-03-03T17:06:13;100859.97;;;6.18;72.52
71465;BME280;59274;49.874;9.154;2023-03-03T17:09:11;100876.31;;;5.93;73.86
71465;BME280;59274;49.874;9.154;2023-03-03T17:17:04;100893.94;;;5.81;74.80
71465;BME280;59274;49.874;9.154;2023-03-03T17:19:42;100900.81;;;5.62;75.25
71465;BME280;59274;49.874;9.154;2023-03-03T17:25:20;100912.75;;;5.43;76.27
71465;BME280;59274;49.874;9.154;2023-03-03T17:30:55;100911.84;;;5.22;77.48
71465;BME280;59274;49.874;9.154;2023-03-03T17:44:15;100928.97;;;4.75;79.70
71465;BME280;59274;49.874;9.154;2023-03-03T17:46:59;100935.78;;;4.72;79.87
71465;BME280;59274;49.874;9.154;2023-03-03T18:22:50;100957.16;;;4.12;81.78
71465;BME280;59274;49.874;9.154;2023-03-03T18:25:18;100954.25;;;4.00;82.10
71465;BME280;59274;49.874;9.154;2023-03-03T18:27:46;100950.63;;;3.96;82.26
71465;BME280;59274;49.874;9.154;2023-03-03T18:30:28;100970.91;;;3.79;82.98
71465;BME280;59274;49.874;9.154;2023-03-03T18:35:44;100971.19;;;3.69;83.91
71465;BME280;59274;49.874;9.154;2023-03-03T18:40:51;100974.91;;;3.60;84.44
71465;BME280;59274;49.874;9.154;2023-03-03T18:49:09;100984.94;;;3.45;86.04
71465;BME280;59274;49.874;9.154;2023-03-03T19:07:29;101007.59;;;2.95;88.26
71465;BME280;59274;49.874;9.154;2023-03-03T19:12:59;101010.09;;;2.91;89.71
71465;BME280;59274;49.874;9.154;2023-03-03T19:17:59;101003.03;;;2.82;89.32
71465;BME280;59274;49.874;9.154;2023-03-03T19:20:36;101004.44;;;2.79;89.06